Time;durP1;ratioP1;P1;durP2;ratioP2;P2;SDS_P1;SDS_P2;PMS_P1;PMS_P2;Temp;Humidity;BMP_temperature;BMP_pressure;BME280_temperature;BME280_humidity;BME280_pressure;Samples;Min_cycle;Max_cycle;Signal;HPM_P1;HPM_P2
2023/05/22 00:01:27;;;;;;;11.53;6.83;;;19.10;99.90;;;19.03;67.40;100935.09;4951260;28;97519;-51
2023/05/22 00:03:53;;;;;;;12.73;6.47;;;19.00;99.90;;;19.02;63.21;100927.19;4947596;28;97684;-54
2023/05/22 00:06:20;;;;;;;10.87;6.07;;;19.00;99.90;;;19.04;74.97;100930.63;4951223;28;98801;-53
2023/05/22 00:08:46;;;;;;;8.90;6.40;;;19.00;99.90;;;19.02;71.70;100933.41;4940928;28;97609;-48
2023/05/22 00:11:12;;;;;;;11.33;6.40;;;19.00;99.90;;;19.03;77.36;100928.91;4951600;28;98306;-53
2023/05/22 00:13:38;;;;;;;10.83;6.90;;;19.00;99.90;;;19.03;78.04;100932.44;4940311;28;109652;-52
2023/05/22 00:16:04;;;;;;;11.70;6.83;;;19.00;99.90;;;18.98;66.43;100941.72;4943524;28;105395;-50
2023/05/22 00:18:31;;;;;;;10.03;6.23;;;19.00;99.90;;;18.98;67.95;100925.69;4951542;28;97178;-47
2023/05/22 00:20:57;;;;;;;10.87;7.03;;;19.00;99.90;;;18.96;65.04;100931.13;4943736;28;97380;-46
2023/05/22 00:23:24;;;;;;;9.67;6.53;;;19.00;99.90;;;18.93;64.26;100928.66;4937568;28;97622;-51
2023/05/22 00:25:50;;;;;;;9.23;5.90;;;19.00;99.90;;;18.93;64.50;100927.78;4921752;28;97637;-49
2023/05/22 00:28:16;;;;;;;11.30;6.50;;;19.00;99.90;;;18.94;72.96;100921.47;4920806;28;97716;-49
2023/05/22 00:30:42;;;;;;;9.80;6.20;;;19.00;99.90;;;18.93;72.28;100915.28;4918129;28;97539;-49
2023/05/22 00:33:08;;;;;;;10.83;5.63;;;18.90;99.90;;;18.93;75.36;100914.44;4927187;28;97322;-51
2023/05/22 00:35:34;;;;;;;8.20;5.43;;;18.90;99.90;;;18.88;65.50;100919.22;4925968;28;97326;-52
2023/05/22 00:38:04;;;;;;;10.00;6.40;;;18.90;99.90;;;18.88;66.41;100913.88;4915416;28;97805;-45
2023/05/22 00:40:30;;;;;;;10.17;5.90;;;18.90;99.90;;;18.90;74.88;100917.31;4920523;28;97522;-48
2023/05/22 00:42:55;;;;;;;12.03;6.03;;;18.90;99.90;;;18.90;76.22;100911.97;4918191;28;97484;-47
2023/05/22 00:45:23;;;;;;;11.30;6.33;;;18.90;99.90;;;18.90;76.56;100909.28;4919435;28;97463;-48
2023/05/22 00:47:49;;;;;;;11.57;6.30;;;18.90;99.90;;;18.88;73.76;100903.19;4926350;28;97411;-48
2023/05/22 00:50:16;;;;;;;8.37;5.10;;;18.90;99.90;;;18.86;73.51;100911.31;4916990;28;97189;-51
2023/05/22 00:52:44;;;;;;;8.50;5.53;;;18.90;99.90;;;18.86;74.08;100907.78;4922657;28;96646;-48
2023/05/22 00:55:12;;;;;;;8.73;5.23;;;18.90;99.90;;;18.86;76.56;100916.66;4942195;28;97461;-47
2023/05/22 00:57:41;;;;;;;9.60;5.83;;;18.90;99.90;;;18.83;73.52;100916.00;4939444;28;98058;-48
2023/05/22 01:00:12;;;;;;;10.23;6.30;;;18.90;99.90;;;18.84;76.71;100915.91;4942246;28;103454;-49
2023/05/22 01:02:38;;;;;;;9.90;6.03;;;18.90;99.90;;;18.84;77.41;100923.06;4941310;28;98403;-46
2023/05/22 01:05:06;;;;;;;9.57;5.90;;;18.80;99.90;;;18.82;77.38;100919.66;4940087;28;97482;-53
2023/05/22 01:07:36;;;;;;;8.90;5.73;;;18.80;99.90;;;18.80;76.98;100916.19;4944264;28;97514;-49
2023/05/22 01:10:06;;;;;;;9.27;5.83;;;18.80;99.90;;;18.80;77.58;100916.19;4919990;28;103792;-50
2023/05/22 01:13:03;;;;;;;11.10;6.03;;;18.80;99.90;;;18.79;77.48;100925.16;4942751;28;97126;-47
2023/05/22 01:15:54;;;;;;;8.77;6.27;;;18.80;99.90;;;18.77;77.69;100927.09;4921666;28;97260;-51
2023/05/22 01:18:51;;;;;;;11.27;5.80;;;18.70;99.90;;;18.75;76.31;100934.34;4934727;28;104580;-50
2023/05/22 01:21:57;;;;;;;10.17;5.80;;;18.70;99.90;;;18.73;77.85;100929.97;4921532;28;105010;-50
2023/05/22 01:24:52;;;;;;;8.90;5.27;;;18.70;99.90;;;18.73;77.81;100927.28;4920446;28;96911;-49
2023/05/22 01:28:06;;;;;;;9.23;4.77;;;18.70;99.90;;;18.71;77.87;100923.88;4945715;28;97494;-51
2023/05/22 01:31:07;;;;;;;11.70;5.30;;;18.70;99.90;;;18.67;70.21;100932.19;4939177;28;104506;-49
2023/05/22 01:33:42;;;;;;;11.40;5.77;;;18.70;99.90;;;18.64;72.76;100922.53;4926283;28;105771;-51
2023/05/22 01:36:12;;;;;;;9.00;5.80;;;18.70;99.90;;;18.67;77.77;100930.38;4958438;28;97600;-52
2023/05/22 01:38:40;;;;;;;8.87;5.73;;;18.70;99.90;;;18.67;77.70;100933.06;4929828;28;99812;-49
2023/05/22 01:41:06;;;;;;;8.80;5.90;;;18.70;99.90;;;18.66;77.49;100931.34;4921078;28;97551;-48
2023/05/22 01:43:32;;;;;;;11.70;6.50;;;18.60;99.90;;;18.64;78.11;100927.88;4922158;28;97481;-52
2023/05/22 01:45:58;;;;;;;10.37;5.53;;;18.60;99.90;;;18.65;78.59;100934.09;4917426;28;98231;-47
2023/05/22 01:48:24;;;;;;;11.37;6.83;;;18.60;99.90;;;18.65;78.56;100929.59;4928196;28;97401;-46
2023/05/22 01:50:52;;;;;;;13.27;6.57;;;18.60;99.90;;;18.65;78.09;100924.25;4922325;28;103863;-51
2023/05/22 01:53:32;;;;;;;11.90;6.30;;;18.60;99.90;;;18.65;78.60;100924.25;4920653;28;97566;-48
2023/05/22 01:56:29;;;;;;;13.07;6.77;;;18.60;99.90;;;18.64;77.33;100917.19;4935953;28;97107;-50
2023/05/22 01:59:29;;;;;;;10.97;6.50;;;18.60;99.90;;;18.65;78.60;100918.91;4941702;28;97439;-52
2023/05/22 02:02:02;;;;;;;14.27;7.03;;;18.60;99.90;;;18.62;79.12;100919.09;4948256;28;105892;-51
2023/05/22 02:04:30;;;;;;;13.73;6.23;;;18.60;99.90;;;18.62;79.00;100918.22;4941981;28;103679;-50
2023/05/22 02:06:59;;;;;;;12.33;7.10;;;18.60;99.90;;;18.62;79.07;100919.09;4940946;28;97350;-52
2023/05/22 02:09:32;;;;;;;9.63;6.13;;;18.60;99.90;;;18.61;73.77;100917.38;4940012;28;97494;-49
2023/05/22 02:11:59;;;;;;;10.23;6.43;;;18.60;99.90;;;18.63;77.10;100915.47;4927155;28;104042;-51
2023/05/22 02:14:25;;;;;;;11.27;6.47;;;18.60;99.90;;;18.64;75.39;100917.19;4923585;28;97385;-51
2023/05/22 02:16:52;;;;;;;14.00;6.37;;;18.60;99.90;;;18.63;70.52;100914.59;4920503;28;97446;-55
2023/05/22 02:19:18;;;;;;;13.27;6.33;;;18.60;99.90;;;18.63;71.43;100915.47;4945506;28;97390;-48
2023/05/22 02:21:44;;;;;;;9.50;6.07;;;18.60;99.90;;;18.65;75.55;100908.22;4937057;28;97989;-50
2023/05/22 02:24:10;;;;;;;11.67;6.80;;;18.60;99.90;;;18.65;73.70;100910.03;4919215;28;97104;-48
2023/05/22 02:26:36;;;;;;;10.17;6.23;;;18.60;99.90;;;18.65;74.69;100913.56;4915710;28;96794;-46
2023/05/22 02:29:02;;;;;;;14.23;7.13;;;18.60;99.90;;;18.64;76.72;100900.31;4917910;28;97396;-50
2023/05/22 02:31:28;;;;;;;13.13;7.27;;;18.60;99.90;;;18.62;77.40;100911.06;4940010;28;129201;-50
2023/05/22 02:33:55;;;;;;;10.37;6.03;;;18.60;99.90;;;18.62;76.97;100908.41;4949832;28;103117;-50
2023/05/22 02:36:21;;;;;;;9.40;5.13;;;18.60;99.90;;;18.60;71.67;100904.97;4938764;28;224000;-45
2023/05/22 02:38:47;;;;;;;10.87;6.30;;;18.60;99.90;;;18.63;74.93;100903.91;4942328;28;97060;-50
2023/05/22 02:41:13;;;;;;;9.50;5.47;;;18.60;99.90;;;18.61;71.78;100900.50;4929453;28;98504;-45
2023/05/22 02:43:39;;;;;;;6.53;4.27;;;18.60;99.90;;;18.59;67.28;100903.25;4943384;28;97364;-44
2023/05/22 02:46:04;;;;;;;9.07;5.50;;;18.50;99.90;;;18.62;71.61;100897.72;4938300;28;97051;-43
2023/05/22 02:48:30;;;;;;;8.87;5.93;;;18.60;99.90;;;18.61;70.93;100896.00;4938536;28;96979;-45
2023/05/22 02:50:56;;;;;;;11.23;6.60;;;18.60;99.90;;;18.62;70.80;100892.38;4943846;28;97426;-45
2023/05/22 02:53:22;;;;;;;12.03;6.03;;;18.60;99.90;;;18.62;72.24;100897.72;4943216;28;97170;-49
2023/05/22 02:55:47;;;;;;;10.73;6.97;;;18.60;99.90;;;18.62;75.83;100892.38;4949431;28;98240;-46
2023/05/22 02:58:13;;;;;;;5.70;4.07;;;18.60;99.90;;;18.61;67.15;100885.31;4943349;28;97196;-43
2023/05/22 03:00:42;;;;;;;11.83;7.10;;;18.60;99.90;;;18.62;75.33;100887.03;4948673;28;107478;-42
2023/05/22 03:03:07;;;;;;;11.87;7.17;;;18.60;99.90;;;18.62;76.42;100886.16;4942774;28;101769;-42
2023/05/22 03:05:33;;;;;;;9.40;6.93;;;18.60;99.90;;;18.60;74.97;100886.28;4944992;28;97030;-42
2023/05/22 03:08:00;;;;;;;11.43;6.80;;;18.60;99.90;;;18.60;76.40;100878.25;4941046;28;97417;-42
2023/05/22 03:10:26;;;;;;;13.97;7.33;;;18.50;99.90;;;18.59;77.12;100876.53;4946067;28;97748;-45
2023/05/22 03:12:51;;;;;;;12.13;6.23;;;18.50;99.90;;;18.58;69.94;100880.19;4926574;28;103113;-52
2023/05/22 03:15:18;;;;;;;12.13;7.73;;;18.60;99.90;;;18.60;74.39;100878.25;4924458;28;97376;-44
2023/05/22 03:17:44;;;;;;;11.70;7.20;;;18.60;99.90;;;18.59;76.42;100884.56;4931706;28;97579;-46
2023/05/22 03:20:15;;;;;;;10.90;7.10;;;18.60;99.90;;;18.57;76.33;100880.28;4919873;28;97759;-50
2023/05/22 03:22:42;;;;;;;17.37;6.80;;;18.50;99.90;;;18.56;76.30;100876.75;4921206;28;97456;-51
2023/05/22 03:25:09;;;;;;;12.37;6.73;;;18.50;99.90;;;18.54;75.13;100883.16;4919885;28;98926;-49
2023/05/22 03:27:35;;;;;;;12.50;6.93;;;18.50;99.90;;;18.50;75.69;100886.97;4920333;28;97258;-51
2023/05/22 03:30:02;;;;;;;12.03;6.87;;;18.40;99.90;;;18.47;74.87;100882.69;4918270;28;104657;-50
2023/05/22 03:32:28;;;;;;;13.53;7.07;;;18.40;99.90;;;18.50;72.97;100890.50;4934705;28;97076;-48
2023/05/22 03:34:54;;;;;;;13.47;7.23;;;18.40;99.90;;;18.50;76.30;100890.50;4941776;28;97171;-51
2023/05/22 03:37:20;;;;;;;12.30;7.17;;;18.40;99.90;;;18.47;76.01;100887.16;4951180;28;97781;-54
2023/05/22 03:39:46;;;;;;;13.03;7.23;;;18.40;99.90;;;18.42;75.68;100893.69;4954506;28;104481;-48
2023/05/22 03:42:12;;;;;;;9.80;6.33;;;18.40;99.90;;;18.41;76.12;100888.44;4944584;28;98124;-45
2023/05/22 03:44:38;;;;;;;13.30;6.60;;;18.30;99.90;;;18.38;76.20;100888.63;4949748;28;97446;-50
2023/05/22 03:47:04;;;;;;;9.87;6.30;;;18.30;99.90;;;18.37;74.18;100892.22;4942155;28;97663;-52
2023/05/22 03:49:30;;;;;;;5.33;3.63;;;18.30;99.90;;;18.39;68.09;100898.38;4946105;28;97068;-51
2023/05/22 03:51:56;;;;;;;13.03;6.83;;;18.30;99.90;;;18.40;69.06;100892.06;4947404;28;97047;-45
2023/05/22 03:54:22;;;;;;;9.77;6.17;;;18.40;99.90;;;18.42;72.49;100892.81;4937439;28;97146;-48
2023/05/22 03:56:48;;;;;;;11.67;6.60;;;18.40;99.90;;;18.43;70.84;100900.72;4952352;28;97423;-48
2023/05/22 03:59:15;;;;;;;10.23;6.50;;;18.40;99.90;;;18.44;70.17;100894.44;4946274;28;99641;-49
2023/05/22 04:01:40;;;;;;;12.73;5.67;;;18.40;99.90;;;18.45;62.60;100897.97;4944273;28;98151;-48
2023/05/22 04:04:08;;;;;;;10.03;6.67;;;18.40;99.90;;;18.49;71.09;100902.13;4949977;28;97564;-45
2023/05/22 04:06:41;;;;;;;10.30;6.57;;;18.40;99.90;;;18.48;71.69;100905.75;4940608;28;97623;-49
2023/05/22 04:09:12;;;;;;;15.33;6.47;;;18.40;99.90;;;18.48;70.58;100904.91;4938772;28;104445;-53
2023/05/22 04:11:38;;;;;;;8.47;6.10;;;18.40;99.90;;;18.49;71.28;100912.81;4924423;28;104997;-52
2023/05/22 04:14:05;;;;;;;11.30;6.30;;;18.40;99.90;;;18.49;70.03;100912.81;4926100;28;97116;-50
2023/05/22 04:16:32;;;;;;;11.20;6.57;;;18.40;99.90;;;18.50;66.08;100909.19;4925770;28;97258;-50
2023/05/22 04:19:00;;;;;;;10.33;6.73;;;18.40;99.90;;;18.51;70.59;100916.25;4945410;28;105286;-48
2023/05/22 04:21:27;;;;;;;11.17;6.53;;;18.50;99.90;;;18.52;72.75;100922.47;4938860;28;97536;-51
2023/05/22 04:23:53;;;;;;;10.63;6.27;;;18.50;99.90;;;18.50;74.51;100922.53;4940992;28;104341;-53
2023/05/22 04:26:19;;;;;;;13.57;6.70;;;18.40;99.90;;;18.48;74.59;100927.13;4948132;28;97198;-49
2023/05/22 04:28:46;;;;;;;10.90;7.20;;;18.40;99.90;;;18.45;74.50;100927.34;4941603;28;97728;-50
2023/05/22 04:31:12;;;;;;;14.57;8.83;;;18.40;99.90;;;18.46;73.12;100931.72;4943435;28;97528;-47
2023/05/22 04:33:38;;;;;;;6.40;4.17;;;18.40;99.90;;;18.47;60.92;100929.91;4937570;28;97180;-52
2023/05/22 04:36:05;;;;;;;12.60;6.93;;;18.40;99.90;;;18.51;71.17;100934.94;4951485;28;97084;-45
2023/05/22 04:38:35;;;;;;;11.77;6.37;;;18.50;99.90;;;18.51;74.74;100934.94;4949786;28;97464;-49
2023/05/22 04:41:04;;;;;;;11.27;6.77;;;18.40;99.90;;;18.51;73.44;100942.94;4946915;28;97737;-56
2023/05/22 04:43:31;;;;;;;12.30;7.27;;;18.50;99.90;;;18.50;75.15;100930.56;4942233;28;99514;-46
2023/05/22 04:45:57;;;;;;;11.80;6.70;;;18.40;99.90;;;18.51;76.66;100934.09;4951872;28;97924;-53
2023/05/22 04:48:22;;;;;;;12.40;7.33;;;18.40;99.90;;;18.51;74.27;100936.75;4951248;28;105023;-47
2023/05/22 04:50:49;;;;;;;13.10;8.07;;;18.40;99.90;;;18.53;74.04;100929.53;4950466;28;107897;-47
2023/05/22 04:53:15;;;;;;;10.83;6.13;;;18.50;99.90;;;18.53;66.52;100934.88;4951141;28;97738;-47
2023/05/22 04:55:41;;;;;;;14.77;7.20;;;18.50;99.90;;;18.57;73.33;100941.72;4946587;28;97801;-48
2023/05/22 04:58:07;;;;;;;12.50;7.17;;;18.60;99.90;;;18.57;75.75;100933.72;4940909;28;99695;-47
2023/05/22 05:00:33;;;;;;;14.77;6.97;;;18.60;99.90;;;18.57;76.68;100936.38;4945676;28;105780;-47
2023/05/22 05:03:01;;;;;;;13.00;6.97;;;18.50;99.90;;;18.56;77.27;100932.84;4936630;28;97460;-53
2023/05/22 05:05:27;;;;;;;11.40;6.80;;;18.50;99.90;;;18.56;77.50;100934.66;4955297;28;97214;-52
2023/05/22 05:07:53;;;;;;;12.27;6.80;;;18.50;99.90;;;18.56;77.31;100940.00;4957886;28;97386;-51
2023/05/22 05:10:19;;;;;;;11.90;6.10;;;18.60;99.90;;;18.56;78.05;100935.53;4951500;28;97402;-51
2023/05/22 05:12:46;;;;;;;10.00;6.20;;;18.60;99.90;;;18.57;78.02;100936.38;4953639;28;97705;-52
2023/05/22 05:15:12;;;;;;;10.07;6.23;;;18.60;99.90;;;18.56;77.96;100935.53;4954447;28;97039;-51
2023/05/22 05:17:38;;;;;;;10.80;6.20;;;18.60;99.90;;;18.57;77.69;100937.22;4943892;28;97676;-46
2023/05/22 05:20:05;;;;;;;11.33;5.60;;;18.60;99.90;;;18.57;77.58;100942.56;4941347;28;105207;-47
2023/05/22 05:22:31;;;;;;;10.13;6.27;;;18.60;99.90;;;18.57;77.55;100937.22;5054346;22;98734;-57
2023/05/22 05:24:57;;;;;;;11.63;6.30;;;18.60;99.90;;;18.57;77.88;100942.56;4987536;27;98293;-55
2023/05/22 05:27:24;;;;;;;10.30;6.07;;;18.60;99.90;;;18.57;78.03;100942.56;4999140;27;97048;-56
2023/05/22 05:29:50;;;;;;;10.33;6.27;;;18.50;99.90;;;18.57;78.07;100942.56;5009502;27;105113;-52
2023/05/22 05:32:17;;;;;;;9.47;6.57;;;18.60;99.90;;;18.59;78.10;100951.34;5020667;27;97287;-54
2023/05/22 05:34:42;;;;;;;10.83;6.13;;;18.60;99.90;;;18.59;77.38;100947.81;5016913;27;96719;-56
2023/05/22 05:37:08;;;;;;;13.33;7.23;;;18.60;99.90;;;18.60;78.19;100942.38;5019483;27;98479;-56
2023/05/22 05:39:34;;;;;;;12.00;7.07;;;18.60;99.90;;;18.62;77.95;100945.81;5016943;27;115484;-55
2023/05/22 05:42:00;;;;;;;12.03;7.10;;;18.60;99.90;;;18.62;77.96;100945.81;5017847;27;110338;-52
2023/05/22 05:44:26;;;;;;;13.50;7.07;;;18.60;99.90;;;18.63;77.13;100958.22;5022448;27;97031;-54
2023/05/22 05:46:52;;;;;;;13.13;7.40;;;18.70;99.90;;;18.64;77.79;100964.44;5026814;27;103268;-58
2023/05/22 05:49:18;;;;;;;15.93;8.80;;;18.60;99.90;;;18.64;77.63;100959.09;5024194;27;97538;-55
2023/05/22 05:51:44;;;;;;;14.93;9.10;;;18.70;99.90;;;18.63;77.92;100963.56;5024671;27;97028;-59
2023/05/22 05:54:10;;;;;;;14.27;8.47;;;18.70;99.90;;;18.65;77.80;100972.34;5023910;27;97494;-53
2023/05/22 05:56:36;;;;;;;15.63;8.40;;;18.70;99.90;;;18.65;78.42;100975.00;5015308;27;97907;-56
2023/05/22 05:59:03;;;;;;;15.07;8.63;;;18.70;99.90;;;18.65;78.48;100972.34;5008311;27;266659;-57
2023/05/22 06:01:32;;;;;;;14.17;8.83;;;18.70;99.90;;;18.66;78.37;100974.09;5019695;27;98664;-53
2023/05/22 06:04:01;;;;;;;17.73;8.77;;;18.70;99.90;;;18.66;77.42;100976.75;5027938;27;97439;-54
2023/05/22 06:06:29;;;;;;;17.03;9.23;;;18.70;99.90;;;18.66;78.33;100979.44;5021641;27;98253;-55
2023/05/22 06:08:56;;;;;;;41.27;10.30;;;18.70;99.90;;;18.66;77.91;100979.44;5024365;27;97134;-55
2023/05/22 06:11:22;;;;;;;15.27;9.23;;;18.70;99.90;;;18.66;77.56;100987.44;5017947;27;117924;-53
2023/05/22 06:13:48;;;;;;;14.73;8.07;;;18.70;99.90;;;18.66;75.25;100979.44;5015312;27;99480;-54
2023/05/22 06:16:13;;;;;;;16.73;8.80;;;18.70;99.90;;;18.68;75.65;100982.84;5012404;27;97507;-58
2023/05/22 06:18:39;;;;;;;16.10;9.17;;;18.70;99.90;;;18.67;78.33;100991.84;5008970;27;96973;-55
2023/05/22 06:21:06;;;;;;;18.03;10.57;;;18.70;99.90;;;18.68;77.92;100982.84;5021263;27;97394;-56
2023/05/22 06:23:32;;;;;;;19.17;9.63;;;18.70;99.90;;;18.68;78.31;100988.19;5020160;27;98476;-57
2023/05/22 06:25:57;;;;;;;17.50;9.33;;;18.70;99.90;;;18.68;78.10;100985.53;5020368;27;97550;-58
2023/05/22 06:28:23;;;;;;;17.47;10.10;;;18.70;99.90;;;18.68;77.33;100974.84;5020959;27;97733;-56
2023/05/22 06:30:49;;;;;;;16.10;8.83;;;18.70;99.90;;;18.68;76.86;100982.84;5016239;27;97340;-58
2023/05/22 06:33:15;;;;;;;16.77;9.63;;;18.70;99.90;;;18.67;75.27;100986.50;5002352;27;96990;-55
2023/05/22 06:35:42;;;;;;;19.73;11.03;;;18.70;99.90;;;18.68;76.15;100988.19;5013673;27;97536;-56
2023/05/22 06:38:07;;;;;;;23.13;11.43;;;18.70;99.90;;;18.69;76.82;100984.56;5015842;27;97428;-56
2023/05/22 06:40:33;;;;;;;19.40;10.43;;;18.70;99.90;;;18.67;70.08;100990.97;5019158;27;97359;-56
2023/05/22 06:43:00;;;;;;;20.27;11.40;;;18.70;99.90;;;18.70;77.26;100996.97;5016435;27;102007;-55
2023/05/22 06:45:26;;;;;;;18.03;9.93;;;18.70;99.90;;;18.71;77.46;100993.34;5004603;27;97634;-58
2023/05/22 06:47:53;;;;;;;20.80;12.00;;;18.80;99.90;;;18.71;76.52;100998.69;5015826;27;97157;-60
2023/05/22 06:50:20;;;;;;;21.53;11.73;;;18.80;99.90;;;18.72;77.40;101003.06;5010064;27;97257;-54
2023/05/22 06:52:47;;;;;;;20.97;11.40;;;18.70;99.90;;;18.73;74.64;101003.94;5019276;27;96817;-56
2023/05/22 06:55:13;;;;;;;20.57;11.27;;;18.80;99.90;;;18.73;75.87;101007.47;5021099;27;105333;-56
2023/05/22 06:57:39;;;;;;;19.77;11.37;;;18.80;99.90;;;18.71;74.05;101009.38;5020946;27;97569;-59
2023/05/22 07:00:08;;;;;;;24.27;11.70;;;18.80;99.90;;;18.73;76.87;101004.78;5014316;27;97292;-56
2023/05/22 07:02:34;;;;;;;21.63;11.77;;;18.80;99.90;;;18.73;74.85;101018.16;5014335;27;97562;-59
2023/05/22 07:05:00;;;;;;;26.50;12.90;;;18.80;99.90;;;18.75;77.54;101012.69;5007528;27;97209;-57
2023/05/22 07:07:25;;;;;;;25.43;11.80;;;18.80;99.90;;;18.75;75.69;101015.38;5023703;27;117243;-53
2023/05/22 07:09:51;;;;;;;22.40;11.93;;;18.80;99.90;;;18.76;76.75;101010.88;5013628;27;104310;-56
2023/05/22 07:12:17;;;;;;;19.23;10.83;;;18.80;99.90;;;18.75;74.16;101019.88;5012292;27;97154;-58
2023/05/22 07:14:43;;;;;;;21.73;12.43;;;18.80;99.90;;;18.77;76.38;101017.94;5021841;27;97111;-57
2023/05/22 07:17:09;;;;;;;22.53;11.80;;;18.80;99.90;;;18.76;76.36;101017.09;5014522;27;98346;-56
2023/05/22 07:19:34;;;;;;;25.17;12.43;;;18.80;99.90;;;18.79;77.02;101016.03;5014489;27;106396;-55
2023/05/22 07:22:00;;;;;;;24.77;12.67;;;18.90;99.90;;;18.81;77.60;101019.50;5016731;27;98594;-58
2023/05/22 07:24:26;;;;;;;24.77;12.87;;;18.90;99.90;;;18.79;75.01;101016.03;5023196;27;97245;-55
2023/05/22 07:26:52;;;;;;;29.00;13.37;;;18.80;99.90;;;18.81;76.99;101024.84;5024500;27;97591;-59
2023/05/22 07:29:18;;;;;;;25.80;12.23;;;18.90;99.90;;;18.80;76.73;101020.41;5014629;27;98077;-56
2023/05/22 07:31:43;;;;;;;31.70;13.43;;;18.90;99.90;;;18.81;74.90;101019.50;5021726;27;107338;-56
2023/05/22 07:34:09;;;;;;;26.77;12.07;;;18.90;99.90;;;18.81;76.59;101024.84;5014567;27;97368;-53
2023/05/22 07:36:36;;;;;;;26.10;12.13;;;18.90;99.90;;;18.79;76.02;101022.22;5018534;27;96796;-57
2023/05/22 07:39:03;;;;;;;26.70;12.57;;;18.90;99.90;;;18.79;77.15;101022.22;5020952;27;98338;-56
2023/05/22 07:41:29;;;;;;;24.50;12.20;;;18.90;99.90;;;18.77;74.76;101029.50;5008781;27;97473;-53
2023/05/22 07:43:55;;;;;;;30.37;12.70;;;18.90;99.90;;;18.79;77.30;101037.41;5017275;27;113675;-59
2023/05/22 07:46:21;;;;;;;25.93;12.23;;;18.80;99.90;;;18.78;76.73;101030.34;5010030;27;97270;-57
2023/05/22 07:48:46;;;;;;;27.57;13.50;;;18.80;99.90;;;18.78;77.53;101031.22;5013526;27;97350;-56
2023/05/22 07:51:12;;;;;;;25.00;12.37;;;18.80;99.90;;;18.80;77.91;101039.13;5024149;27;97030;-55
2023/05/22 07:53:40;;;;;;;25.87;12.30;;;18.90;99.90;;;18.81;77.31;101041.72;5022014;27;97319;-57
2023/05/22 07:56:05;;;;;;;30.90;13.23;;;18.90;99.90;;;18.82;77.68;101037.25;5001171;27;107598;-57
2023/05/22 07:58:33;;;;;;;25.60;12.87;;;18.90;99.90;;;18.81;76.94;101040.88;5019912;27;97097;-55
2023/05/22 08:01:00;;;;;;;24.93;13.63;;;18.90;99.90;;;18.79;77.89;101042.75;5021679;27;98889;-57
2023/05/22 08:03:26;;;;;;;26.67;13.47;;;18.90;99.90;;;18.79;78.75;101043.59;5016890;27;97671;-56
2023/05/22 08:05:52;;;;;;;31.93;14.67;;;18.80;99.90;;;18.81;78.24;101047.06;5009419;27;97412;-57
2023/05/22 08:08:18;;;;;;;31.60;14.83;;;18.90;99.90;;;18.82;77.81;101045.25;5013447;27;97538;-58
2023/05/22 08:10:45;;;;;;;30.40;13.40;;;18.90;99.90;;;18.82;77.97;101054.13;5018987;27;97137;-54
2023/05/22 08:13:11;;;;;;;24.07;13.50;;;18.90;99.90;;;18.82;77.31;101038.09;5015883;27;97625;-57
2023/05/22 08:15:37;;;;;;;31.13;14.30;;;18.90;99.90;;;18.82;76.45;101042.59;5019457;27;97105;-52
2023/05/22 08:18:03;;;;;;;26.37;13.13;;;18.90;99.90;;;18.83;77.95;101044.28;5012817;27;107278;-58
2023/05/22 08:20:29;;;;;;;28.70;14.10;;;18.90;99.90;;;18.83;78.23;101044.28;5016795;27;97338;-56
2023/05/22 08:22:55;;;;;;;23.70;11.90;;;18.90;99.90;;;18.82;76.53;101042.59;5017165;27;111253;-58
2023/05/22 08:25:21;;;;;;;25.73;13.40;;;18.90;99.90;;;18.86;78.12;101049.44;5021470;27;97698;-57
2023/05/22 08:27:47;;;;;;;27.43;14.60;;;18.90;99.90;;;18.87;77.51;101048.47;5020820;27;99079;-58
2023/05/22 08:30:13;;;;;;;27.73;14.23;;;18.90;99.90;;;18.87;77.74;101051.16;5015376;27;97692;-56
2023/05/22 08:32:38;;;;;;;27.63;14.03;;;18.90;99.90;;;18.88;78.08;101060.88;5019034;27;97678;-57
2023/05/22 08:35:05;;;;;;;27.43;14.30;;;18.90;99.90;;;18.84;76.74;101056.69;5014003;27;97060;-54
2023/05/22 08:37:31;;;;;;;26.67;14.73;;;18.90;99.90;;;18.86;77.19;101060.13;5020253;27;97400;-56
2023/05/22 08:39:57;;;;;;;31.97;14.90;;;18.90;99.90;;;18.85;77.51;101063.75;5020444;27;103722;-54
2023/05/22 08:42:23;;;;;;;28.13;14.87;;;18.90;99.90;;;18.86;77.63;101060.97;5021213;27;97385;-55
2023/05/22 08:44:49;;;;;;;27.73;15.07;;;18.90;99.90;;;18.87;77.11;101068.03;5023563;27;97147;-54
2023/05/22 08:47:17;;;;;;;31.47;14.93;;;18.90;99.90;;;18.87;77.50;101061.84;5010132;27;97511;-60
2023/05/22 08:49:45;;;;;;;30.13;14.37;;;18.90;99.90;;;18.73;77.00;101068.91;5020201;27;97404;-56
2023/05/22 08:52:21;;;;;;;26.93;14.43;;;18.90;99.90;;;18.63;73.32;101065.09;5018558;27;97734;-57
2023/05/22 08:54:54;;;;;;;32.10;15.60;;;18.70;99.90;;;18.56;78.54;101066.41;5021347;27;103742;-50
2023/05/22 08:57:21;;;;;;;31.20;15.63;;;18.60;99.90;;;18.37;79.31;101058.69;5016999;27;97268;-56
2023/05/22 08:59:48;;;;;;;36.57;16.43;;;18.40;99.90;;;18.37;80.13;101057.81;5018505;27;97324;-51
2023/05/22 09:02:16;;;;;;;35.00;16.63;;;18.40;99.90;;;18.41;80.00;101059.38;5007836;27;413520;-55
2023/05/22 09:04:41;;;;;;;35.13;16.63;;;18.40;99.90;;;18.40;80.26;101057.66;5018459;27;97671;-49
2023/05/22 09:07:07;;;;;;;31.17;13.63;;;18.30;99.90;;;18.51;74.36;101060.47;5023624;27;97476;-56
2023/05/22 09:09:37;;;;;;;38.63;17.10;;;18.40;99.90;;;18.62;77.52;101062.50;5013471;27;97566;-56
2023/05/22 09:12:09;;;;;;;33.93;16.97;;;18.60;99.90;;;18.68;78.22;101067.50;5002226;27;98250;-57
2023/05/22 09:14:43;;;;;;;30.43;16.07;;;18.70;99.90;;;18.70;78.19;101066.44;4980627;27;623575;-56
2023/05/22 09:17:13;;;;;;;30.50;15.30;;;18.70;99.90;;;18.75;76.80;101073.31;5009223;27;98497;-55
2023/05/22 09:19:46;;;;;;;27.83;15.53;;;18.70;99.90;;;18.75;77.21;101073.31;5010586;27;97448;-57
2023/05/22 09:22:13;;;;;;;27.70;14.10;;;18.80;99.90;;;18.77;77.17;101071.38;5010068;27;103646;-57
2023/05/22 09:24:41;;;;;;;31.77;15.03;;;18.80;99.90;;;18.78;78.21;101073.09;5013979;27;99210;-56
2023/05/22 09:27:08;;;;;;;27.53;14.83;;;18.80;99.90;;;18.83;77.57;101073.69;5011883;27;97526;-58
2023/05/22 09:29:55;;;;;;;31.13;16.43;;;18.80;99.90;;;18.86;77.25;101070.81;5011459;27;96789;-56
2023/05/22 09:32:22;;;;;;;25.50;14.40;;;18.90;99.90;;;18.85;76.21;101074.44;5009951;27;104004;-56
2023/05/22 09:34:50;;;;;;;25.10;12.80;;;18.90;99.90;;;18.85;76.23;101079.78;5011145;27;99003;-55
2023/05/22 09:37:17;;;;;;;23.70;12.20;;;18.90;99.90;;;18.85;74.59;101077.13;5011250;27;98895;-56
2023/05/22 09:39:47;;;;;;;23.00;12.53;;;18.90;99.90;;;18.87;74.78;101080.56;5018872;27;99131;-57
2023/05/22 09:42:16;;;;;;;22.73;11.30;;;18.90;99.90;;;18.90;75.98;101077.69;5006956;27;104932;-59
2023/05/22 09:44:47;;;;;;;23.57;12.43;;;18.90;99.90;;;18.91;75.17;101079.41;5023727;27;98256;-57
2023/05/22 09:47:13;;;;;;;25.10;13.23;;;19.00;99.90;;;18.95;75.90;101076.44;5017838;27;97711;-55
2023/05/22 09:49:44;;;;;;;24.53;12.90;;;19.00;99.90;;;18.94;72.71;101074.69;5010735;27;97617;-58
2023/05/22 09:52:11;;;;;;;19.67;12.03;;;19.00;99.90;;;18.91;71.91;101082.06;5010989;27;98737;-57
2023/05/22 09:54:56;;;;;;;25.10;12.43;;;19.00;99.90;;;19.00;76.20;101077.00;5015251;27;101251;-56
2023/05/22 09:57:25;;;;;;;22.40;12.33;;;19.00;99.90;;;19.03;74.42;101079.47;5008478;27;97888;-57
2023/05/22 09:59:58;;;;;;;24.47;12.00;;;19.10;99.90;;;19.06;74.28;101083.75;5007420;27;99794;-57
2023/05/22 10:02:26;;;;;;;24.97;12.03;;;19.10;99.90;;;19.08;73.66;101081.84;5013735;27;99131;-56
2023/05/22 10:04:53;;;;;;;24.30;13.00;;;19.10;99.90;;;19.10;73.65;101079.09;5014127;27;98339;-56
2023/05/22 10:07:25;;;;;;;24.63;13.20;;;19.20;99.90;;;19.10;73.94;101085.31;5014505;27;97970;-56